createdAt,value
2023-03-05T00:00:40.952Z,7.23
2023-03-05T00:03:07.604Z,7.18
2023-03-05T00:05:34.278Z,7.15
2023-03-05T00:08:01.011Z,7.09
2023-03-05T00:10:27.662Z,7.03
2023-03-05T00:12:54.312Z,7.04
2023-03-05T00:15:20.975Z,7.04
2023-03-05T00:17:47.670Z,7.03
2023-03-05T00:20:14.445Z,6.93
2023-03-05T00:22:41.124Z,6.87
2023-03-05T00:25:08.117Z,6.88
2023-03-05T00:27:34.760Z,6.82
2023-03-05T00:30:01.655Z,6.88
2023-03-05T00:32:28.377Z,6.84
2023-03-05T00:34:55.108Z,6.77
2023-03-05T00:37:21.774Z,6.77
2023-03-05T00:39:48.439Z,6.71
2023-03-05T00:42:15.100Z,6.73
2023-03-05T00:44:41.749Z,6.75
2023-03-05T00:47:08.411Z,6.70
2023-03-05T00:49:35.243Z,6.63
2023-03-05T00:52:01.933Z,6.63
2023-03-05T00:54:37.302Z,6.58
2023-03-05T00:57:07.145Z,6.54
2023-03-05T00:59:33.873Z,6.52
2023-03-05T01:02:00.589Z,6.53
2023-03-05T01:04:27.271Z,6.56
2023-03-05T01:06:53.916Z,6.56
2023-03-05T01:09:20.612Z,6.53
2023-03-05T01:11:47.398Z,6.52
2023-03-05T01:14:14.228Z,6.54
2023-03-05T01:16:40.901Z,6.55
2023-03-05T01:19:07.575Z,6.51
2023-03-05T01:21:35.275Z,6.46
2023-03-05T01:24:02.109Z,6.44
2023-03-05T01:26:28.798Z,6.37
2023-03-05T01:28:55.435Z,6.35
2023-03-05T01:31:22.121Z,6.42
2023-03-05T01:33:48.797Z,6.41
2023-03-05T01:36:15.546Z,6.34
2023-03-05T01:38:43.371Z,6.28
2023-03-05T01:41:10.120Z,6.21
2023-03-05T01:43:36.801Z,6.22
2023-03-05T01:46:22.652Z,6.15
2023-03-05T01:49:01.387Z,6.20
2023-03-05T01:51:29.687Z,6.15
2023-03-05T01:53:56.350Z,6.11
2023-03-05T01:56:23.024Z,6.10
2023-03-05T01:58:49.839Z,6.07
2023-03-05T02:01:16.615Z,5.98
2023-03-05T02:03:43.415Z,5.96
2023-03-05T02:06:10.108Z,5.95
2023-03-05T02:08:36.750Z,5.99
2023-03-05T02:11:03.419Z,5.98
2023-03-05T02:13:32.786Z,5.94
2023-03-05T02:15:59.982Z,5.89
2023-03-05T02:18:26.640Z,5.90
2023-03-05T02:21:01.549Z,5.94
2023-03-05T02:23:30.346Z,5.87
2023-03-05T02:25:57.026Z,5.84
2023-03-05T02:28:30.820Z,5.80
2023-03-05T02:30:57.493Z,5.78
2023-03-05T02:33:24.145Z,5.78
2023-03-05T02:35:50.814Z,5.76
2023-03-05T02:38:18.390Z,5.79
2023-03-05T02:40:45.064Z,5.75
2023-03-05T02:43:11.729Z,5.72
2023-03-05T02:45:38.605Z,5.68
2023-03-05T02:48:05.382Z,5.68
2023-03-05T02:50:32.066Z,5.65
2023-03-05T02:52:58.726Z,5.58
2023-03-05T02:55:25.527Z,5.57
2023-03-05T02:57:52.178Z,5.49
2023-03-05T03:00:18.958Z,5.45
2023-03-05T03:02:45.666Z,5.41
2023-03-05T03:05:12.324Z,5.35
2023-03-05T03:07:39.000Z,5.38
2023-03-05T03:10:06.303Z,5.33
2023-03-05T03:12:37.496Z,5.28
2023-03-05T03:15:04.384Z,5.18
2023-03-05T03:17:31.025Z,5.15
2023-03-05T03:19:57.680Z,5.05
2023-03-05T03:22:24.327Z,5.01
2023-03-05T03:24:50.972Z,4.98
2023-03-05T03:27:17.655Z,4.95
2023-03-05T03:29:44.304Z,4.91
2023-03-05T03:32:11.019Z,4.92
2023-03-05T03:34:37.726Z,4.89
2023-03-05T03:37:04.404Z,4.87
2023-03-05T03:39:31.077Z,4.80
2023-03-05T03:41:57.801Z,4.80
2023-03-05T03:44:24.440Z,4.73
2023-03-05T03:46:51.208Z,4.73
2023-03-05T03:49:22.657Z,4.76
2023-03-05T03:51:49.328Z,4.69
2023-03-05T03:54:16.171Z,4.74
2023-03-05T03:56:42.848Z,4.73
2023-03-05T03:59:09.578Z,4.69
2023-03-05T04:01:36.255Z,4.64
2023-03-05T04:04:03.438Z,4.62
2023-03-05T04:06:30.161Z,4.62
2023-03-05T04:08:56.866Z,4.62
2023-03-05T04:11:23.567Z,4.60
2023-03-05T04:13:50.405Z,4.60
2023-03-05T04:16:17.159Z,4.57
2023-03-05T04:18:43.910Z,4.60
2023-03-05T04:21:10.595Z,4.51
2023-03-05T04:23:37.277Z,4.50
2023-03-05T04:26:04.102Z,4.51
2023-03-05T04:28:30.921Z,4.56
2023-03-05T04:30:57.642Z,4.49
2023-03-05T04:33:24.313Z,4.49
2023-03-05T04:35:51.037Z,4.47
2023-03-05T04:38:17.715Z,4.45
2023-03-05T04:40:45.146Z,4.45
2023-03-05T04:43:11.888Z,4.40
2023-03-05T04:45:42.471Z,4.42
2023-03-05T04:48:09.380Z,4.40
2023-03-05T04:50:36.083Z,4.42
2023-03-05T04:53:03.042Z,4.44
2023-03-05T04:55:29.689Z,4.44
2023-03-05T04:57:56.391Z,4.40
2023-03-05T05:00:23.014Z,4.40
2023-03-05T05:02:50.134Z,4.42
2023-03-05T05:05:24.764Z,4.43
2023-03-05T05:07:55.782Z,4.44
2023-03-05T05:10:22.490Z,4.43
2023-03-05T05:12:50.472Z,4.43
2023-03-05T05:15:17.183Z,4.39
2023-03-05T05:17:43.900Z,4.41
2023-03-05T05:20:11.792Z,4.38
2023-03-05T05:22:38.487Z,4.39
2023-03-05T05:25:05.444Z,4.38
2023-03-05T05:27:32.139Z,4.31
2023-03-05T05:29:58.937Z,4.29
2023-03-05T05:32:25.769Z,4.30
2023-03-05T05:34:56.237Z,4.22
2023-03-05T05:37:22.962Z,4.23
2023-03-05T05:39:49.658Z,4.24
2023-03-05T05:42:17.695Z,4.17
2023-03-05T05:44:44.361Z,4.16
2023-03-05T05:47:11.093Z,4.14
2023-03-05T05:49:37.792Z,4.10
2023-03-05T05:52:04.715Z,4.04
2023-03-05T05:54:31.406Z,4.01
2023-03-05T05:56:58.098Z,3.95
2023-03-05T05:59:24.886Z,3.89
2023-03-05T06:01:51.679Z,3.90
2023-03-05T06:04:18.406Z,3.92
2023-03-05T06:06:45.088Z,3.93
2023-03-05T06:09:11.891Z,3.93
2023-03-05T06:11:38.544Z,3.92
2023-03-05T06:14:05.292Z,3.98
2023-03-05T06:16:32.025Z,3.95
2023-03-05T06:18:58.717Z,3.97
2023-03-05T06:21:25.531Z,3.94
2023-03-05T06:23:52.247Z,3.96
2023-03-05T06:26:21.306Z,3.94
2023-03-05T06:28:47.983Z,3.93
2023-03-05T06:31:22.050Z,3.96
2023-03-05T06:33:49.358Z,3.95
2023-03-05T06:36:17.097Z,3.94
2023-03-05T06:38:43.790Z,3.95
2023-03-05T06:41:15.137Z,3.90
2023-03-05T06:43:43.234Z,3.91
2023-03-05T06:46:14.890Z,3.92
2023-03-05T06:48:41.888Z,3.94
2023-03-05T06:51:18.351Z,3.91
2023-03-05T06:53:45.046Z,3.94
2023-03-05T06:56:11.730Z,3.96
2023-03-05T06:58:38.407Z,3.96
2023-03-05T07:01:06.324Z,4.00
2023-03-05T07:03:34.103Z,4.03
2023-03-05T07:06:03.767Z,4.07
2023-03-05T07:08:30.450Z,4.20
2023-03-05T07:10:57.122Z,4.23
2023-03-05T07:13:24.775Z,4.23
2023-03-05T07:15:51.555Z,4.34
2023-03-05T07:18:18.243Z,4.43
2023-03-05T07:20:44.891Z,4.51
2023-03-05T07:23:11.561Z,4.56
2023-03-05T07:25:38.524Z,4.58
2023-03-05T07:28:05.812Z,4.62
2023-03-05T07:30:33.286Z,4.61
2023-03-05T07:32:59.915Z,4.66
2023-03-05T07:35:26.751Z,4.68
2023-03-05T07:37:53.562Z,4.69
2023-03-05T07:40:20.449Z,4.69
2023-03-05T07:42:47.098Z,4.72
2023-03-05T07:45:13.779Z,4.78
2023-03-05T07:47:40.489Z,4.84
2023-03-05T07:50:07.471Z,4.85
2023-03-05T07:52:34.150Z,4.83
2023-03-05T07:55:00.807Z,4.88
2023-03-05T07:57:27.484Z,4.85
2023-03-05T07:59:54.131Z,4.82
2023-03-05T08:02:20.845Z,4.89
2023-03-05T08:04:47.555Z,4.94
2023-03-05T08:07:17.518Z,5.04
2023-03-05T08:09:44.202Z,5.02
2023-03-05T08:12:10.870Z,5.08
2023-03-05T08:14:37.746Z,5.13
2023-03-05T08:17:05.068Z,5.13
2023-03-05T08:19:32.583Z,5.20
2023-03-05T08:21:59.270Z,5.16
2023-03-05T08:24:25.933Z,5.17
2023-03-05T08:26:52.584Z,5.24
2023-03-05T08:29:19.332Z,5.27
2023-03-05T08:31:46.161Z,5.36
2023-03-05T08:34:12.968Z,5.44
2023-03-05T08:36:39.649Z,5.55
2023-03-05T08:39:06.517Z,5.68
2023-03-05T08:41:33.176Z,5.77
2023-03-05T08:43:59.871Z,5.83
2023-03-05T08:46:26.540Z,5.96
2023-03-05T08:48:53.258Z,6.04
2023-03-05T08:51:21.520Z,6.14
2023-03-05T08:53:48.219Z,6.31
2023-03-05T08:56:14.986Z,6.40
2023-03-05T08:58:41.666Z,6.52
2023-03-05T09:01:08.320Z,6.63
2023-03-05T09:03:34.979Z,6.74
2023-03-05T09:06:02.366Z,6.75
2023-03-05T09:08:29.206Z,6.78
2023-03-05T09:10:56.035Z,6.85
2023-03-05T09:13:22.711Z,6.91
2023-03-05T09:16:00.034Z,7.12
2023-03-05T09:18:26.778Z,7.19
2023-03-05T09:20:53.763Z,7.21
2023-03-05T09:23:20.501Z,7.34
2023-03-05T09:25:47.175Z,7.29
2023-03-05T09:28:13.841Z,7.32
2023-03-05T09:30:40.515Z,7.36
2023-03-05T09:33:07.240Z,7.42
2023-03-05T09:35:37.224Z,7.48
2023-03-05T09:38:05.680Z,7.55
2023-03-05T09:40:47.354Z,7.64
2023-03-05T09:43:26.989Z,7.78
2023-03-05T09:46:11.714Z,8.12
2023-03-05T09:48:52.269Z,8.34
2023-03-05T09:51:28.143Z,8.57
2023-03-05T09:54:02.818Z,8.83
2023-03-05T09:56:41.278Z,9.03
2023-03-05T09:59:32.707Z,9.21
2023-03-05T10:02:17.403Z,9.40
2023-03-05T10:05:04.810Z,9.80
2023-03-05T10:07:32.673Z,10.03
2023-03-05T10:10:08.808Z,10.20
2023-03-05T10:12:38.521Z,10.46
2023-03-05T10:15:15.943Z,10.61
2023-03-05T10:18:06.544Z,10.68
2023-03-05T10:20:56.110Z,10.81
2023-03-05T10:23:42.372Z,10.96
2023-03-05T10:26:45.363Z,11.05
2023-03-05T10:29:29.574Z,11.17
2023-03-05T10:32:19.565Z,11.25
2023-03-05T10:34:55.579Z,11.27
2023-03-05T10:37:22.126Z,11.28
2023-03-05T10:39:51.777Z,11.40
2023-03-05T10:42:50.949Z,11.32
2023-03-05T10:45:23.111Z,11.39
2023-03-05T10:48:16.570Z,11.41
2023-03-05T10:50:46.775Z,11.49
2023-03-05T10:53:26.921Z,11.54
2023-03-05T10:55:53.596Z,11.49
2023-03-05T10:58:20.435Z,11.50
2023-03-05T11:01:10.211Z,11.42
2023-03-05T11:03:59.449Z,11.49
2023-03-05T11:06:41.902Z,11.40
2023-03-05T11:09:23.638Z,11.37
2023-03-05T11:12:15.655Z,11.35
2023-03-05T11:14:44.796Z,11.20
2023-03-05T11:17:40.632Z,11.15
2023-03-05T11:20:28.622Z,11.00
2023-03-05T11:23:14.404Z,10.93
2023-03-05T11:25:57.158Z,10.92
2023-03-05T11:28:33.664Z,10.92
2023-03-05T11:31:05.098Z,10.92
2023-03-05T11:33:31.897Z,10.87
2023-03-05T11:36:25.648Z,10.68
2023-03-05T11:38:54.564Z,10.70
2023-03-05T11:41:25.858Z,10.58
2023-03-05T11:43:53.183Z,10.57
2023-03-05T11:46:20.216Z,10.49
2023-03-05T11:48:47.023Z,10.54
2023-03-05T11:51:31.668Z,10.60
2023-03-05T11:54:01.145Z,10.73
2023-03-05T11:56:30.201Z,10.65
2023-03-05T11:59:15.428Z,10.47
2023-03-05T12:01:51.342Z,10.37
2023-03-05T12:04:19.046Z,10.40
2023-03-05T12:07:00.171Z,10.31
2023-03-05T12:09:34.267Z,10.32
2023-03-05T12:12:31.951Z,10.33
2023-03-05T12:15:05.352Z,10.13
2023-03-05T12:17:35.505Z,10.16
2023-03-05T12:20:15.893Z,10.09
2023-03-05T12:22:43.241Z,10.13
2023-03-05T12:25:32.064Z,10.21
2023-03-05T12:27:58.866Z,10.16
2023-03-05T12:30:45.973Z,10.13
2023-03-05T12:33:37.284Z,10.12
2023-03-05T12:36:22.519Z,10.15
2023-03-05T12:38:52.905Z,10.17
2023-03-05T12:41:22.621Z,10.03
2023-03-05T12:44:09.118Z,10.08
2023-03-05T12:46:39.716Z,9.97
2023-03-05T12:49:21.588Z,9.96
2023-03-05T12:51:49.192Z,9.97
2023-03-05T12:54:23.147Z,9.96
2023-03-05T12:56:49.833Z,9.95
2023-03-05T12:59:17.217Z,9.91
2023-03-05T13:01:50.845Z,9.83
2023-03-05T13:04:21.546Z,9.77
2023-03-05T13:06:49.779Z,9.74
2023-03-05T13:09:23.926Z,9.62
2023-03-05T13:11:52.005Z,9.76
2023-03-05T13:14:29.218Z,9.72
2023-03-05T13:16:56.005Z,9.70
2023-03-05T13:19:22.777Z,9.65
2023-03-05T13:22:03.151Z,9.74
2023-03-05T13:24:29.843Z,9.81
2023-03-05T13:26:56.551Z,9.89
2023-03-05T13:29:24.990Z,9.82
2023-03-05T13:31:55.961Z,9.90
2023-03-05T13:34:40.949Z,10.01
2023-03-05T13:37:20.282Z,9.99
2023-03-05T13:39:51.968Z,10.01
2023-03-05T13:42:21.528Z,10.11
2023-03-05T13:44:59.153Z,10.07
2023-03-05T13:47:28.743Z,10.18
2023-03-05T13:49:59.359Z,10.13
2023-03-05T13:52:31.020Z,10.10
2023-03-05T13:54:59.651Z,10.15
2023-03-05T13:57:43.293Z,10.17
2023-03-05T14:00:37.039Z,10.26
2023-03-05T14:03:21.127Z,10.22
2023-03-05T14:05:47.952Z,10.35
2023-03-05T14:08:24.256Z,10.47
2023-03-05T14:10:51.484Z,10.61
2023-03-05T14:13:20.244Z,10.73
2023-03-05T14:16:10.405Z,10.82
2023-03-05T14:18:37.197Z,10.79
2023-03-05T14:21:11.255Z,10.81
2023-03-05T14:23:43.837Z,10.86
2023-03-05T14:26:23.482Z,10.87
2023-03-05T14:28:56.158Z,10.83
2023-03-05T14:31:22.846Z,10.76
2023-03-05T14:33:51.310Z,10.72
2023-03-05T14:36:24.771Z,10.75
2023-03-05T14:38:52.644Z,10.81
2023-03-05T14:41:32.367Z,10.83
2023-03-05T14:43:59.944Z,10.80
2023-03-05T14:46:27.653Z,10.78
2023-03-05T14:48:55.224Z,10.74
2023-03-05T14:51:21.967Z,10.72
2023-03-05T14:53:49.417Z,10.72
2023-03-05T14:56:27.059Z,10.80
2023-03-05T14:58:54.636Z,10.75
2023-03-05T15:01:22.266Z,10.79
2023-03-05T15:03:49.821Z,10.85
2023-03-05T15:06:36.297Z,10.88
2023-03-05T15:09:05.109Z,10.88
2023-03-05T15:11:33.711Z,10.80
2023-03-05T15:14:01.326Z,10.74
2023-03-05T15:16:28.995Z,10.67
2023-03-05T15:18:56.514Z,10.68
2023-03-05T15:21:25.136Z,10.70
2023-03-05T15:23:53.743Z,10.69
2023-03-05T15:26:21.310Z,10.67
2023-03-05T15:28:48.932Z,10.64
2023-03-05T15:31:16.554Z,10.73
2023-03-05T15:33:44.126Z,10.66
2023-03-05T15:36:11.718Z,10.60
2023-03-05T15:38:41.345Z,10.48
2023-03-05T15:41:08.940Z,10.48
2023-03-05T15:43:50.702Z,10.38
2023-03-05T15:46:20.312Z,10.33
2023-03-05T15:48:48.025Z,10.26
2023-03-05T15:51:16.965Z,10.24
2023-03-05T15:53:44.433Z,10.21
2023-03-05T15:56:19.042Z,10.16
2023-03-05T15:58:46.633Z,10.12
2023-03-05T16:01:13.981Z,10.17
2023-03-05T16:03:43.727Z,10.16
2023-03-05T16:06:11.435Z,10.08
2023-03-05T16:08:38.150Z,10.00
2023-03-05T16:11:05.059Z,9.94
2023-03-05T16:13:32.249Z,9.86
2023-03-05T16:16:01.190Z,9.87
2023-03-05T16:18:29.458Z,9.83
2023-03-05T16:20:57.063Z,9.78
2023-03-05T16:23:24.667Z,9.70
2023-03-05T16:25:53.319Z,9.62
2023-03-05T16:28:20.913Z,9.59
2023-03-05T16:30:56.528Z,9.52
2023-03-05T16:33:25.144Z,9.46
2023-03-05T16:36:12.867Z,9.40
2023-03-05T16:38:40.442Z,9.36
2023-03-05T16:41:08.970Z,9.30
2023-03-05T16:43:36.641Z,9.30
2023-03-05T16:46:04.283Z,9.22
2023-03-05T16:48:31.102Z,9.11
2023-03-05T16:50:58.511Z,9.08
2023-03-05T16:53:26.123Z,9.02
2023-03-05T16:55:54.803Z,8.96
2023-03-05T16:58:22.182Z,8.90
2023-03-05T17:00:50.091Z,8.82
2023-03-05T17:03:16.828Z,8.75
2023-03-05T17:05:43.611Z,8.74
2023-03-05T17:08:10.331Z,8.66
2023-03-05T17:10:38.643Z,8.57
2023-03-05T17:13:06.145Z,8.53
2023-03-05T17:15:34.679Z,8.48
2023-03-05T17:18:03.298Z,8.43
2023-03-05T17:20:30.905Z,8.40
2023-03-05T17:22:58.482Z,8.35
2023-03-05T17:25:27.124Z,8.30
2023-03-05T17:27:54.706Z,8.29
2023-03-05T17:30:22.348Z,8.40
2023-03-05T17:32:52.684Z,8.48
2023-03-05T17:35:21.609Z,8.45
2023-03-05T17:37:50.178Z,8.46
2023-03-05T17:40:18.759Z,8.32
2023-03-05T17:42:48.073Z,8.40
2023-03-05T17:45:15.002Z,8.30
2023-03-05T17:47:42.613Z,8.09
2023-03-05T17:50:11.196Z,7.91
2023-03-05T17:52:39.795Z,8.04
2023-03-05T17:55:10.726Z,8.04
2023-03-05T17:57:39.086Z,8.05
2023-03-05T18:00:07.625Z,7.93
2023-03-05T18:02:35.197Z,7.87
2023-03-05T18:05:04.257Z,7.78
2023-03-05T18:07:33.411Z,7.71
2023-03-05T18:10:02.012Z,7.67
2023-03-05T18:12:32.361Z,7.63
2023-03-05T18:15:00.234Z,7.59
2023-03-05T18:17:27.796Z,7.51
2023-03-05T18:19:55.420Z,7.40
2023-03-05T18:22:24.081Z,7.35
2023-03-05T18:24:52.626Z,7.26
2023-03-05T18:27:20.211Z,7.17
2023-03-05T18:29:48.821Z,7.13
2023-03-05T18:32:17.505Z,7.09
2023-03-05T18:34:46.132Z,7.10
2023-03-05T18:37:12.918Z,7.08
2023-03-05T18:39:40.285Z,7.17
2023-03-05T18:42:07.932Z,7.34
2023-03-05T18:44:35.590Z,7.27
2023-03-05T18:47:02.337Z,7.19
2023-03-05T18:49:29.051Z,7.18
2023-03-05T18:51:55.708Z,7.19
2023-03-05T18:54:22.387Z,7.30
2023-03-05T18:56:49.719Z,7.29
2023-03-05T18:59:16.415Z,7.21
2023-03-05T19:01:43.140Z,7.20
2023-03-05T19:04:10.283Z,7.10
2023-03-05T19:06:37.012Z,7.05
2023-03-05T19:09:44.610Z,7.03
2023-03-05T19:12:11.312Z,6.93
2023-03-05T19:14:38.057Z,6.97
2023-03-05T19:17:04.735Z,6.96
2023-03-05T19:19:31.427Z,6.96
2023-03-05T19:21:58.199Z,6.91
2023-03-05T19:24:25.905Z,6.89
2023-03-05T19:26:52.563Z,6.87
2023-03-05T19:29:19.534Z,6.81
2023-03-05T19:31:47.124Z,6.75
2023-03-05T19:34:14.751Z,6.67
2023-03-05T19:36:41.429Z,6.68
2023-03-05T19:39:08.135Z,6.73
2023-03-05T19:41:34.893Z,6.64
2023-03-05T19:44:02.146Z,6.53
2023-03-05T19:46:29.823Z,6.48
2023-03-05T19:48:56.598Z,6.42
2023-03-05T19:51:24.319Z,6.42
2023-03-05T19:53:50.947Z,6.41
2023-03-05T19:56:17.752Z,6.45
2023-03-05T19:58:44.697Z,6.43
2023-03-05T20:01:12.566Z,6.45
2023-03-05T20:03:40.270Z,6.42
2023-03-05T20:06:08.884Z,6.30
2023-03-05T20:08:36.456Z,6.26
2023-03-05T20:11:03.561Z,6.22
2023-03-05T20:13:30.594Z,6.20
2023-03-05T20:15:57.416Z,6.13
2023-03-05T20:18:24.392Z,6.08
2023-03-05T20:20:55.104Z,6.01
2023-03-05T20:23:22.119Z,5.99
2023-03-05T20:25:49.046Z,6.05
2023-03-05T20:28:16.036Z,6.03
2023-03-05T20:30:42.762Z,5.98
2023-03-05T20:33:10.429Z,6.01
2023-03-05T20:35:37.350Z,6.01
2023-03-05T20:38:26.187Z,5.96
2023-03-05T20:40:54.649Z,5.89
2023-03-05T20:43:21.935Z,5.86
2023-03-05T20:45:48.647Z,5.85
2023-03-05T20:48:15.484Z,5.84
2023-03-05T20:50:42.208Z,5.80
2023-03-05T20:53:08.910Z,5.79
2023-03-05T20:55:35.609Z,5.73
2023-03-05T20:58:02.322Z,5.67
2023-03-05T21:00:29.050Z,5.66
2023-03-05T21:02:55.730Z,5.67
2023-03-05T21:05:25.380Z,5.58
2023-03-05T21:07:52.034Z,5.50
2023-03-05T21:10:19.556Z,5.49
2023-03-05T21:12:47.362Z,5.71
2023-03-05T21:15:15.878Z,5.69
2023-03-05T21:17:42.566Z,5.66
2023-03-05T21:20:11.835Z,5.58
2023-03-05T21:22:38.514Z,5.50
2023-03-05T21:25:23.469Z,5.53
2023-03-05T21:27:51.729Z,5.47
2023-03-05T21:30:18.669Z,5.47
2023-03-05T21:32:45.484Z,5.46
2023-03-05T21:35:16.619Z,5.47
2023-03-05T21:37:43.337Z,5.43
2023-03-05T21:40:11.977Z,5.41
2023-03-05T21:42:38.800Z,5.32
2023-03-05T21:45:06.410Z,5.24
2023-03-05T21:47:33.530Z,5.17
2023-03-05T21:50:00.437Z,5.12
2023-03-05T21:52:27.110Z,5.05
2023-03-05T21:54:54.033Z,5.02
2023-03-05T21:57:22.386Z,5.05
2023-03-05T21:59:49.026Z,5.15
2023-03-05T22:02:17.221Z,5.04
2023-03-05T22:04:44.214Z,5.09
2023-03-05T22:07:10.877Z,5.19
2023-03-05T22:09:37.544Z,5.24
2023-03-05T22:12:37.607Z,5.25
2023-03-05T22:15:04.561Z,5.40
2023-03-05T22:17:31.202Z,5.36
2023-03-05T22:19:57.848Z,5.36
2023-03-05T22:22:24.502Z,5.39
2023-03-05T22:24:51.184Z,5.41
2023-03-05T22:27:17.819Z,5.42
2023-03-05T22:29:44.472Z,5.37
2023-03-05T22:32:11.211Z,5.37
2023-03-05T22:34:37.882Z,5.40
2023-03-05T22:37:04.615Z,5.36
2023-03-05T22:39:31.276Z,5.37
2023-03-05T22:41:57.928Z,5.32
2023-03-05T22:44:25.163Z,5.27
2023-03-05T22:46:51.886Z,5.27
2023-03-05T22:49:18.532Z,5.33
2023-03-05T22:51:45.206Z,5.31
2023-03-05T22:54:11.845Z,5.25
2023-03-05T22:56:38.604Z,5.21
2023-03-05T22:59:05.254Z,5.21
2023-03-05T23:01:31.906Z,5.20
2023-03-05T23:04:38.636Z,5.18
2023-03-05T23:07:05.381Z,5.16
2023-03-05T23:09:32.030Z,5.15
2023-03-05T23:11:58.672Z,5.12
2023-03-05T23:14:25.334Z,5.11
2023-03-05T23:16:51.974Z,5.12
2023-03-05T23:19:18.641Z,5.16
2023-03-05T23:21:45.309Z,5.08
2023-03-05T23:24:11.946Z,5.04
2023-03-05T23:26:38.606Z,5.05
2023-03-05T23:29:05.235Z,4.96
2023-03-05T23:31:31.956Z,4.93
2023-03-05T23:33:58.628Z,4.77
2023-03-05T23:36:25.480Z,4.94
2023-03-05T23:38:52.131Z,4.88
2023-03-05T23:41:18.792Z,4.90
2023-03-05T23:43:45.437Z,4.88
2023-03-05T23:46:12.126Z,5.00
2023-03-05T23:48:38.808Z,4.97
2023-03-05T23:51:09.339Z,4.99
2023-03-05T23:53:36.154Z,5.05
2023-03-05T23:56:07.470Z,5.00
2023-03-05T23:58:35.503Z,4.98
